sensor_id;sensor_type;location;lat;lon;timestamp;pressure;altitude;pressure_sealevel;temperature;humidity
9796;BME280;4937;42.680;27.704;2023-12-22T00:00:28;100060.41;;;2.16;76.37
9796;BME280;4937;42.680;27.704;2023-12-22T00:02:54;100067.34;;;2.20;75.77
9796;BME280;4937;42.680;27.704;2023-12-22T00:05:19;100065.44;;;2.17;76.12
9796;BME280;4937;42.680;27.704;2023-12-22T00:07:44;100060.38;;;2.19;76.25
9796;BME280;4937;42.680;27.704;2023-12-22T00:10:10;100057.25;;;2.21;76.19
9796;BME280;4937;42.680;27.704;2023-12-22T00:12:35;100049.06;;;2.24;75.88
9796;BME280;4937;42.680;27.704;2023-12-22T00:15:04;100061.91;;;2.24;75.56
9796;BME280;4937;42.680;27.704;2023-12-22T00:17:29;100051.03;;;2.20;75.79
9796;BME280;4937;42.680;27.704;2023-12-22T00:19:55;100047.91;;;2.25;75.50
9796;BME280;4937;42.680;27.704;2023-12-22T00:22:24;100042.09;;;2.27;75.75
9796;BME280;4937;42.680;27.704;2023-12-22T00:24:50;100038.97;;;2.28;75.44
9796;BME280;4937;42.680;27.704;2023-12-22T00:27:16;100035.91;;;2.19;75.62
9796;BME280;4937;42.680;27.704;2023-12-22T00:29:41;100037.84;;;2.19;75.66
9796;BME280;4937;42.680;27.704;2023-12-22T00:32:07;100045.25;;;2.15;77.96
9796;BME280;4937;42.680;27.704;2023-12-22T00:34:35;100036.25;;;2.25;77.78
9796;BME280;4937;42.680;27.704;2023-12-22T00:37:00;100037.03;;;2.29;74.97
9796;BME280;4937;42.680;27.704;2023-12-22T00:39:26;100036.66;;;2.27;74.40
9796;BME280;4937;42.680;27.704;2023-12-22T00:41:51;100025.78;;;2.23;74.37
9796;BME280;4937;42.680;27.704;2023-12-22T00:44:17;100022.72;;;2.11;74.57
9796;BME280;4937;42.680;27.704;2023-12-22T00:46:42;100015.78;;;2.06;74.62
9796;BME280;4937;42.680;27.704;2023-12-22T00:49:07;100015.44;;;1.97;74.79
9796;BME280;4937;42.680;27.704;2023-12-22T00:51:33;100010.03;;;1.93;74.70
9796;BME280;4937;42.680;27.704;2023-12-22T00:53:58;100004.59;;;1.93;74.80
9796;BME280;4937;42.680;27.704;2023-12-22T00:56:24;99999.97;;;1.83;74.67
9796;BME280;4937;42.680;27.704;2023-12-22T00:58:49;99996.09;;;1.81;75.34
9796;BME280;4937;42.680;27.704;2023-12-22T01:01:14;99999.22;;;1.76;74.88
9796;BME280;4937;42.680;27.704;2023-12-22T01:03:40;99994.19;;;1.78;75.15
9796;BME280;4937;42.680;27.704;2023-12-22T01:06:05;99996.94;;;1.71;75.04
9796;BME280;4937;42.680;27.704;2023-12-22T01:08:31;100000.41;;;1.68;75.39
9796;BME280;4937;42.680;27.704;2023-12-22T01:10:56;99996.16;;;1.67;75.38
9796;BME280;4937;42.680;27.704;2023-12-22T01:13:21;99983.78;;;1.59;75.96
9796;BME280;4937;42.680;27.704;2023-12-22T01:15:47;99981.03;;;1.62;75.62
9796;BME280;4937;42.680;27.704;2023-12-22T01:18:12;99980.31;;;1.58;75.93
9796;BME280;4937;42.680;27.704;2023-12-22T01:20:38;99976.81;;;1.58;75.21
9796;BME280;4937;42.680;27.704;2023-12-22T01:23:03;99972.59;;;1.43;77.03
9796;BME280;4937;42.680;27.704;2023-12-22T01:25:29;99973.38;;;1.43;77.65
9796;BME280;4937;42.680;27.704;2023-12-22T01:27:54;99966.34;;;1.46;77.44
9796;BME280;4937;42.680;27.704;2023-12-22T01:30:19;99966.75;;;1.48;77.30
9796;BME280;4937;42.680;27.704;2023-12-22T01:32:45;99958.22;;;1.49;77.43
9796;BME280;4937;42.680;27.704;2023-12-22T01:35:10;99957.50;;;1.38;77.40
9796;BME280;4937;42.680;27.704;2023-12-22T01:37:36;99959.84;;;1.33;77.73
9796;BME280;4937;42.680;27.704;2023-12-22T01:40:03;99943.50;;;1.43;77.45
9796;BME280;4937;42.680;27.704;2023-12-22T01:42:28;99937.63;;;1.52;77.43
9796;BME280;4937;42.680;27.704;2023-12-22T01:44:54;99933.31;;;1.61;77.80
9796;BME280;4937;42.680;27.704;2023-12-22T01:47:20;99922.50;;;1.54;78.05
9796;BME280;4937;42.680;27.704;2023-12-22T01:49:46;99919.38;;;1.56;78.24
9796;BME280;4937;42.680;27.704;2023-12-22T01:52:11;99921.25;;;1.62;77.92
9796;BME280;4937;42.680;27.704;2023-12-22T01:54:37;99917.38;;;1.67;77.76
9796;BME280;4937;42.680;27.704;2023-12-22T01:57:03;99920.09;;;1.67;77.93
9796;BME280;4937;42.680;27.704;2023-12-22T01:59:30;99912.28;;;1.72;78.63
9796;BME280;4937;42.680;27.704;2023-12-22T02:02:02;99914.56;;;1.81;78.19
9796;BME280;4937;42.680;27.704;2023-12-22T02:04:30;99902.94;;;1.80;77.29
9796;BME280;4937;42.680;27.704;2023-12-22T02:06:58;99904.06;;;1.83;76.77
9796;BME280;4937;42.680;27.704;2023-12-22T02:09:24;99899.06;;;1.78;77.12
9796;BME280;4937;42.680;27.704;2023-12-22T02:11:49;99895.94;;;1.79;78.39
9796;BME280;4937;42.680;27.704;2023-12-22T02:14:14;99891.25;;;1.83;77.52
9796;BME280;4937;42.680;27.704;2023-12-22T02:16:42;99890.88;;;1.81;76.42
9796;BME280;4937;42.680;27.704;2023-12-22T02:19:27;99889.75;;;1.79;76.39
9796;BME280;4937;42.680;27.704;2023-12-22T02:22:09;99887.03;;;1.75;75.58
9796;BME280;4937;42.680;27.704;2023-12-22T02:24:35;99884.00;;;1.66;77.13
9796;BME280;4937;42.680;27.704;2023-12-22T02:27:44;99883.59;;;1.64;76.88
9796;BME280;4937;42.680;27.704;2023-12-22T02:32:39;99878.19;;;1.64;77.17
9796;BME280;4937;42.680;27.704;2023-12-22T02:35:09;99873.56;;;1.58;77.49
9796;BME280;4937;42.680;27.704;2023-12-22T02:37:36;99864.25;;;1.55;77.26
9796;BME280;4937;42.680;27.704;2023-12-22T02:40:02;99865.78;;;1.63;78.14
9796;BME280;4937;42.680;27.704;2023-12-22T02:42:29;99860.34;;;1.63;76.63
9796;BME280;4937;42.680;27.704;2023-12-22T02:44:59;99867.31;;;1.64;78.18
9796;BME280;4937;42.680;27.704;2023-12-22T02:47:25;99870.03;;;1.64;77.15
9796;BME280;4937;42.680;27.704;2023-12-22T02:49:53;99868.09;;;1.65;76.44
9796;BME280;4937;42.680;27.704;2023-12-22T02:52:18;99869.66;;;1.62;77.41
9796;BME280;4937;42.680;27.704;2023-12-22T02:54:44;99855.72;;;1.57;76.58
9796;BME280;4937;42.680;27.704;2023-12-22T02:57:09;99861.91;;;1.57;76.46
9796;BME280;4937;42.680;27.704;2023-12-22T02:59:36;99860.78;;;1.55;76.89
9796;BME280;4937;42.680;27.704;2023-12-22T03:02:02;99853.50;;;1.41;76.53
9796;BME280;4937;42.680;27.704;2023-12-22T03:04:28;99855.03;;;1.42;77.06
9796;BME280;4937;42.680;27.704;2023-12-22T03:06:53;99847.22;;;1.48;76.56
9796;BME280;4937;42.680;27.704;2023-12-22T03:09:18;99844.50;;;1.51;77.31
9796;BME280;4937;42.680;27.704;2023-12-22T03:11:44;99846.81;;;1.56;76.27
9796;BME280;4937;42.680;27.704;2023-12-22T03:14:09;99845.25;;;1.55;77.21
9796;BME280;4937;42.680;27.704;2023-12-22T03:16:35;99847.97;;;1.55;77.00
9796;BME280;4937;42.680;27.704;2023-12-22T03:19:01;99844.09;;;1.56;77.12
9796;BME280;4937;42.680;27.704;2023-12-22T03:21:26;99837.09;;;1.55;76.43
9796;BME280;4937;42.680;27.704;2023-12-22T03:23:52;99836.34;;;1.55;76.76
9796;BME280;4937;42.680;27.704;2023-12-22T03:26:17;99828.16;;;1.58;76.46
9796;BME280;4937;42.680;27.704;2023-12-22T03:28:42;99831.59;;;1.62;75.36
9796;BME280;4937;42.680;27.704;2023-12-22T03:31:08;99819.22;;;1.61;76.52
9796;BME280;4937;42.680;27.704;2023-12-22T03:33:33;99818.47;;;1.57;76.47
9796;BME280;4937;42.680;27.704;2023-12-22T03:35:59;99826.69;;;1.47;76.76
9796;BME280;4937;42.680;27.704;2023-12-22T03:38:24;99822.41;;;1.49;76.22
9796;BME280;4937;42.680;27.704;2023-12-22T03:40:50;99820.03;;;1.55;76.65
9796;BME280;4937;42.680;27.704;2023-12-22T03:43:15;99807.19;;;1.59;76.56
9796;BME280;4937;42.680;27.704;2023-12-22T03:45:41;99808.69;;;1.67;75.77
9796;BME280;4937;42.680;27.704;2023-12-22T03:48:06;99810.66;;;1.63;76.19
9796;BME280;4937;42.680;27.704;2023-12-22T03:50:31;99793.59;;;1.59;75.55
9796;BME280;4937;42.680;27.704;2023-12-22T03:52:57;99789.28;;;1.65;75.33
9796;BME280;4937;42.680;27.704;2023-12-22T03:55:22;99794.72;;;1.65;75.91
9796;BME280;4937;42.680;27.704;2023-12-22T03:57:48;99790.47;;;1.64;75.67
9796;BME280;4937;42.680;27.704;2023-12-22T04:00:13;99789.72;;;1.63;75.96
9796;BME280;4937;42.680;27.704;2023-12-22T04:02:40;99793.56;;;1.66;76.41
9796;BME280;4937;42.680;27.704;2023-12-22T04:05:05;99790.84;;;1.69;76.05
9796;BME280;4937;42.680;27.704;2023-12-22T04:07:31;99795.06;;;1.70;76.35
9796;BME280;4937;42.680;27.704;2023-12-22T04:09:56;99794.28;;;1.70;76.43
9796;BME280;4937;42.680;27.704;2023-12-22T04:12:22;99790.41;;;1.74;76.74
9796;BME280;4937;42.680;27.704;2023-12-22T04:14:47;99799.63;;;1.84;82.19
9796;BME280;4937;42.680;27.704;2023-12-22T04:17:12;99793.38;;;1.87;77.66
9796;BME280;4937;42.680;27.704;2023-12-22T04:19:38;99787.19;;;1.86;76.81
9796;BME280;4937;42.680;27.704;2023-12-22T04:22:03;99786.84;;;1.84;77.57
9796;BME280;4937;42.680;27.704;2023-12-22T04:24:29;99788.78;;;1.84;78.99
9796;BME280;4937;42.680;27.704;2023-12-22T04:26:54;99798.38;;;1.92;80.68
9796;BME280;4937;42.680;27.704;2023-12-22T04:29:19;99801.00;;;2.06;80.42
9796;BME280;4937;42.680;27.704;2023-12-22T04:31:45;99790.44;;;2.15;78.81
9796;BME280;4937;42.680;27.704;2023-12-22T04:34:13;99800.06;;;2.20;79.18
9796;BME280;4937;42.680;27.704;2023-12-22T04:36:39;99799.25;;;2.26;78.27
9796;BME280;4937;42.680;27.704;2023-12-22T04:39:05;99804.69;;;2.26;77.24
9796;BME280;4937;42.680;27.704;2023-12-22T04:41:30;99796.91;;;2.28;77.20
9796;BME280;4937;42.680;27.704;2023-12-22T04:43:56;99789.16;;;2.27;76.07
9796;BME280;4937;42.680;27.704;2023-12-22T04:46:21;99782.16;;;2.26;76.75
9796;BME280;4937;42.680;27.704;2023-12-22T04:48:46;99780.63;;;2.25;77.19
9796;BME280;4937;42.680;27.704;2023-12-22T04:51:12;99778.28;;;2.27;77.87
9796;BME280;4937;42.680;27.704;2023-12-22T04:53:37;99772.81;;;2.30;77.62
9796;BME280;4937;42.680;27.704;2023-12-22T04:56:03;99781.31;;;2.32;76.10
9796;BME280;4937;42.680;27.704;2023-12-22T04:58:28;99780.50;;;2.35;76.79
9796;BME280;4937;42.680;27.704;2023-12-22T05:00:54;99771.19;;;2.33;76.25
9796;BME280;4937;42.680;27.704;2023-12-22T05:03:19;99778.66;;;2.29;76.27
9796;BME280;4937;42.680;27.704;2023-12-22T05:05:45;99773.25;;;2.22;77.87
9796;BME280;4937;42.680;27.704;2023-12-22T05:08:10;99776.31;;;2.27;77.59
9796;BME280;4937;42.680;27.704;2023-12-22T05:10:35;99779.00;;;2.31;77.36
9796;BME280;4937;42.680;27.704;2023-12-22T05:13:01;99778.28;;;2.27;77.71
9796;BME280;4937;42.680;27.704;2023-12-22T05:15:26;99774.38;;;2.28;76.79
9796;BME280;4937;42.680;27.704;2023-12-22T05:17:52;99778.25;;;2.30;75.88
9796;BME280;4937;42.680;27.704;2023-12-22T05:20:17;99773.63;;;2.24;76.14
9796;BME280;4937;42.680;27.704;2023-12-22T05:22:43;99784.50;;;2.24;75.99
9796;BME280;4937;42.680;27.704;2023-12-22T05:25:08;99773.63;;;2.24;76.49
9796;BME280;4937;42.680;27.704;2023-12-22T05:27:35;99774.78;;;2.26;76.29
9796;BME280;4937;42.680;27.704;2023-12-22T05:30:01;99768.84;;;2.35;76.88
9796;BME280;4937;42.680;27.704;2023-12-22T05:32:29;99771.94;;;2.37;76.19
9796;BME280;4937;42.680;27.704;2023-12-22T05:34:55;99780.56;;;2.32;76.26
9796;BME280;4937;42.680;27.704;2023-12-22T05:37:20;99771.25;;;2.29;76.16
9796;BME280;4937;42.680;27.704;2023-12-22T05:39:45;99776.69;;;2.29;76.38
9796;BME280;4937;42.680;27.704;2023-12-22T05:42:11;99778.19;;;2.34;76.69
9796;BME280;4937;42.680;27.704;2023-12-22T05:44:36;99773.97;;;2.29;76.64
9796;BME280;4937;42.680;27.704;2023-12-22T05:47:04;99774.69;;;2.33;76.33
9796;BME280;4937;42.680;27.704;2023-12-22T05:49:30;99775.81;;;2.39;76.96
9796;BME280;4937;42.680;27.704;2023-12-22T05:51:55;99773.25;;;2.59;74.90
9796;BME280;4937;42.680;27.704;2023-12-22T05:54:20;99778.44;;;2.80;75.46
9796;BME280;4937;42.680;27.704;2023-12-22T05:56:46;99782.22;;;2.89;73.73
9796;BME280;4937;42.680;27.704;2023-12-22T05:59:11;99781.75;;;2.94;75.07
9796;BME280;4937;42.680;27.704;2023-12-22T06:01:37;99772.72;;;3.01;75.55
9796;BME280;4937;42.680;27.704;2023-12-22T06:04:02;99772.66;;;3.04;74.86
9796;BME280;4937;42.680;27.704;2023-12-22T06:06:28;99767.53;;;3.10;73.77
9796;BME280;4937;42.680;27.704;2023-12-22T06:08:55;99769.03;;;3.15;75.18
9796;BME280;4937;42.680;27.704;2023-12-22T06:11:20;99769.25;;;3.27;74.52
9796;BME280;4937;42.680;27.704;2023-12-22T06:13:45;99760.16;;;3.11;74.36
9796;BME280;4937;42.680;27.704;2023-12-22T06:16:14;99764.53;;;3.31;73.16
9796;BME280;4937;42.680;27.704;2023-12-22T06:18:40;99756.91;;;3.46;72.71
9796;BME280;4937;42.680;27.704;2023-12-22T06:21:06;99764.72;;;3.44;72.41
9796;BME280;4937;42.680;27.704;2023-12-22T06:23:32;99750.91;;;3.58;70.94
9796;BME280;4937;42.680;27.704;2023-12-22T06:25:57;99752.59;;;3.71;71.80
9796;BME280;4937;42.680;27.704;2023-12-22T06:28:23;99766.31;;;3.91;74.64
9796;BME280;4937;42.680;27.704;2023-12-22T06:30:48;99752.63;;;3.94;71.01
9796;BME280;4937;42.680;27.704;2023-12-22T06:33:14;99770.59;;;4.12;67.24
9796;BME280;4937;42.680;27.704;2023-12-22T06:35:39;99757.75;;;4.12;66.95
9796;BME280;4937;42.680;27.704;2023-12-22T06:38:06;99747.97;;;4.15;67.67
9796;BME280;4937;42.680;27.704;2023-12-22T06:40:34;99742.81;;;4.20;68.33
9796;BME280;4937;42.680;27.704;2023-12-22T06:42:59;99743.97;;;4.19;69.09
9796;BME280;4937;42.680;27.704;2023-12-22T06:45:24;99746.00;;;4.15;70.14
9796;BME280;4937;42.680;27.704;2023-12-22T06:47:50;99747.69;;;4.09;69.07
9796;BME280;4937;42.680;27.704;2023-12-22T06:50:15;99747.91;;;3.95;69.68
9796;BME280;4937;42.680;27.704;2023-12-22T06:52:40;99743.25;;;3.95;69.40
9796;BME280;4937;42.680;27.704;2023-12-22T06:55:06;99750.28;;;3.93;70.08
9796;BME280;4937;42.680;27.704;2023-12-22T06:57:32;99749.47;;;3.96;69.85
9796;BME280;4937;42.680;27.704;2023-12-22T06:59:57;99753.38;;;3.95;68.48
9796;BME280;4937;42.680;27.704;2023-12-22T07:02:23;99752.69;;;3.91;69.30
9796;BME280;4937;42.680;27.704;2023-12-22T07:07:35;99741.78;;;3.91;69.70
9796;BME280;4937;42.680;27.704;2023-12-22T07:10:01;99738.50;;;3.99;69.95
9796;BME280;4937;42.680;27.704;2023-12-22T07:12:26;99736.13;;;4.01;69.90
9796;BME280;4937;42.680;27.704;2023-12-22T07:14:52;99722.34;;;3.89;71.25
9796;BME280;4937;42.680;27.704;2023-12-22T07:17:17;99729.41;;;4.06;71.20
9796;BME280;4937;42.680;27.704;2023-12-22T07:19:43;99720.63;;;4.18;70.69
9796;BME280;4937;42.680;27.704;2023-12-22T07:22:08;99717.34;;;4.27;70.69
9796;BME280;4937;42.680;27.704;2023-12-22T07:24:33;99714.38;;;4.37;70.17
9796;BME280;4937;42.680;27.704;2023-12-22T07:26:59;99709.91;;;4.47;68.59
9796;BME280;4937;42.680;27.704;2023-12-22T07:29:24;99717.50;;;4.59;69.45
9796;BME280;4937;42.680;27.704;2023-12-22T07:31:50;99717.25;;;4.69;69.00
9796;BME280;4937;42.680;27.704;2023-12-22T07:34:16;99712.34;;;4.80;70.03
9796;BME280;4937;42.680;27.704;2023-12-22T07:36:42;99721.16;;;4.88;68.90
9796;BME280;4937;42.680;27.704;2023-12-22T07:39:07;99715.53;;;4.95;69.35
9796;BME280;4937;42.680;27.704;2023-12-22T07:41:34;99712.44;;;5.13;69.85
9796;BME280;4937;42.680;27.704;2023-12-22T07:44:00;99712.19;;;5.23;69.38
9796;BME280;4937;42.680;27.704;2023-12-22T07:46:26;99714.06;;;5.42;70.13
9796;BME280;4937;42.680;27.704;2023-12-22T07:48:53;99715.59;;;5.59;68.98
9796;BME280;4937;42.680;27.704;2023-12-22T07:51:20;99718.75;;;5.74;68.43
9796;BME280;4937;42.680;27.704;2023-12-22T07:53:45;99713.22;;;5.93;68.22
9796;BME280;4937;42.680;27.704;2023-12-22T07:56:11;99712.72;;;6.11;68.64
9796;BME280;4937;42.680;27.704;2023-12-22T07:58:36;99699.91;;;6.37;68.90
9796;BME280;4937;42.680;27.704;2023-12-22T08:01:03;99700.00;;;6.62;67.95
9796;BME280;4937;42.680;27.704;2023-12-22T08:03:29;99706.06;;;6.94;67.21
9796;BME280;4937;42.680;27.704;2023-12-22T08:05:54;99705.44;;;7.28;66.00
9796;BME280;4937;42.680;27.704;2023-12-22T08:08:21;99705.91;;;7.73;64.54
9796;BME280;4937;42.680;27.704;2023-12-22T08:10:46;99694.81;;;8.11;63.52
9796;BME280;4937;42.680;27.704;2023-12-22T08:13:11;99696.84;;;8.54;62.61
9796;BME280;4937;42.680;27.704;2023-12-22T08:15:37;99705.75;;;8.88;59.76
9796;BME280;4937;42.680;27.704;2023-12-22T08:18:03;99702.53;;;9.21;58.72
9796;BME280;4937;42.680;27.704;2023-12-22T08:20:28;99703.69;;;9.50;58.42
9796;BME280;4937;42.680;27.704;2023-12-22T08:22:54;99707.56;;;9.71;57.12
9796;BME280;4937;42.680;27.704;2023-12-22T08:25:19;99710.66;;;9.82;55.84
9796;BME280;4937;42.680;27.704;2023-12-22T08:27:47;99698.88;;;9.90;55.05
9796;BME280;4937;42.680;27.704;2023-12-22T08:30:13;99697.84;;;9.97;56.00
9796;BME280;4937;42.680;27.704;2023-12-22T08:32:39;99695.53;;;9.95;56.77
9796;BME280;4937;42.680;27.704;2023-12-22T08:35:05;99701.66;;;9.99;56.82
9796;BME280;4937;42.680;27.704;2023-12-22T08:37:31;99700.75;;;10.02;56.82
9796;BME280;4937;42.680;27.704;2023-12-22T08:39:56;99695.38;;;9.99;56.89
9796;BME280;4937;42.680;27.704;2023-12-22T08:42:23;99693.84;;;9.98;57.11
9796;BME280;4937;42.680;27.704;2023-12-22T08:44:48;99690.66;;;9.99;57.59
9796;BME280;4937;42.680;27.704;2023-12-22T08:47:14;99675.03;;;9.96;57.48
9796;BME280;4937;42.680;27.704;2023-12-22T08:49:39;99675.63;;;9.82;57.38
9796;BME280;4937;42.680;27.704;2023-12-22T08:52:05;99673.94;;;9.85;56.86
9796;BME280;4937;42.680;27.704;2023-12-22T08:54:30;99672.56;;;9.71;59.36
9796;BME280;4937;42.680;27.704;2023-12-22T08:56:56;99674.84;;;9.64;57.74
9796;BME280;4937;42.680;27.704;2023-12-22T08:59:22;99664.00;;;9.69;57.51
9796;BME280;4937;42.680;27.704;2023-12-22T09:01:47;99659.56;;;9.72;57.93
9796;BME280;4937;42.680;27.704;2023-12-22T09:04:13;99656.50;;;9.70;58.74
9796;BME280;4937;42.680;27.704;2023-12-22T09:06:38;99651.91;;;9.58;58.26
9796;BME280;4937;42.680;27.704;2023-12-22T09:09:04;99646.41;;;9.67;58.04
9796;BME280;4937;42.680;27.704;2023-12-22T09:11:29;99644.88;;;9.75;57.97
9796;BME280;4937;42.680;27.704;2023-12-22T09:13:55;99643.38;;;9.83;57.27
9796;BME280;4937;42.680;27.704;2023-12-22T09:16:24;99632.38;;;9.92;57.46
9796;BME280;4937;42.680;27.704;2023-12-22T09:18:52;99633.25;;;9.98;57.31
9796;BME280;4937;42.680;27.704;2023-12-22T09:21:18;99629.59;;;10.01;58.03
9796;BME280;4937;42.680;27.704;2023-12-22T09:23:44;99625.47;;;9.96;57.46
9796;BME280;4937;42.680;27.704;2023-12-22T09:26:14;99614.47;;;9.87;56.53
9796;BME280;4937;42.680;27.704;2023-12-22T09:28:40;99614.78;;;9.71;56.29
9796;BME280;4937;42.680;27.704;2023-12-22T09:31:09;99619.66;;;9.85;55.91
9796;BME280;4937;42.680;27.704;2023-12-22T09:33:35;99610.03;;;9.90;55.33
9796;BME280;4937;42.680;27.704;2023-12-22T09:36:00;99606.19;;;9.87;54.57
9796;BME280;4937;42.680;27.704;2023-12-22T09:38:25;99607.13;;;9.84;55.55
9796;BME280;4937;42.680;27.704;2023-12-22T09:40:51;99604.22;;;9.88;54.32
9796;BME280;4937;42.680;27.704;2023-12-22T09:43:19;99602.53;;;9.81;53.14
9796;BME280;4937;42.680;27.704;2023-12-22T09:45:45;99598.25;;;9.71;54.27
9796;BME280;4937;42.680;27.704;2023-12-22T09:48:13;99603.75;;;9.71;52.79
9796;BME280;4937;42.680;27.704;2023-12-22T09:50:45;99616.88;;;9.40;51.69
9796;BME280;4937;42.680;27.704;2023-12-22T09:53:12;99624.28;;;9.13;53.03
9796;BME280;4937;42.680;27.704;2023-12-22T09:55:43;99614.47;;;9.02;55.74
9796;BME280;4937;42.680;27.704;2023-12-22T09:58:12;99622.72;;;9.02;56.87
9796;BME280;4937;42.680;27.704;2023-12-22T10:00:38;99623.03;;;9.05;58.30
9796;BME280;4937;42.680;27.704;2023-12-22T10:03:07;99622.41;;;9.00;57.87
9796;BME280;4937;42.680;27.704;2023-12-22T10:05:35;99626.81;;;8.89;58.51
9796;BME280;4937;42.680;27.704;2023-12-22T10:08:02;99624.47;;;8.78;59.22
9796;BME280;4937;42.680;27.704;2023-12-22T10:10:32;99626.84;;;8.67;59.27
9796;BME280;4937;42.680;27.704;2023-12-22T10:12:57;99614.72;;;8.56;61.07
9796;BME280;4937;42.680;27.704;2023-12-22T10:15:24;99609.88;;;8.60;60.52
9796;BME280;4937;42.680;27.704;2023-12-22T10:17:50;99603.56;;;8.50;61.18
9796;BME280;4937;42.680;27.704;2023-12-22T10:20:16;99592.28;;;8.48;60.79
9796;BME280;4937;42.680;27.704;2023-12-22T10:22:42;99581.16;;;8.30;60.19
9796;BME280;4937;42.680;27.704;2023-12-22T10:25:08;99574.03;;;8.33;60.67
9796;BME280;4937;42.680;27.704;2023-12-22T10:27:35;99568.75;;;8.47;60.33
9796;BME280;4937;42.680;27.704;2023-12-22T10:30:03;99572.78;;;8.55;59.86
9796;BME280;4937;42.680;27.704;2023-12-22T10:32:29;99596.16;;;8.69;59.63
9796;BME280;4937;42.680;27.704;2023-12-22T10:34:55;99589.78;;;8.72;58.88
9796;BME280;4937;42.680;27.704;2023-12-22T10:37:23;99578.19;;;8.77;58.72
9796;BME280;4937;42.680;27.704;2023-12-22T10:39:54;99577.91;;;8.84;59.42
9796;BME280;4937;42.680;27.704;2023-12-22T10:42:20;99564.50;;;8.95;59.69
9796;BME280;4937;42.680;27.704;2023-12-22T10:44:46;99559.50;;;9.02;59.52
9796;BME280;4937;42.680;27.704;2023-12-22T10:47:12;99561.38;;;9.15;58.24
9796;BME280;4937;42.680;27.704;2023-12-22T10:49:37;99547.63;;;9.24;56.62
9796;BME280;4937;42.680;27.704;2023-12-22T10:52:03;99544.56;;;9.31;55.83
9796;BME280;4937;42.680;27.704;2023-12-22T10:54:29;99533.41;;;9.34;56.29
9796;BME280;4937;42.680;27.704;2023-12-22T10:56:59;99542.44;;;9.44;56.44
9796;BME280;4937;42.680;27.704;2023-12-22T10:59:31;99540.16;;;9.51;55.29
9796;BME280;4937;42.680;27.704;2023-12-22T11:01:58;99543.69;;;9.61;56.24
9796;BME280;4937;42.680;27.704;2023-12-22T11:04:29;99520.56;;;9.67;55.07
9796;BME280;4937;42.680;27.704;2023-12-22T11:06:57;99511.56;;;9.67;56.13
9796;BME280;4937;42.680;27.704;2023-12-22T11:09:23;99528.06;;;9.76;55.23
9796;BME280;4937;42.680;27.704;2023-12-22T11:11:51;99518.59;;;9.77;54.04
9796;BME280;4937;42.680;27.704;2023-12-22T11:14:19;99529.91;;;9.52;54.09
9796;BME280;4937;42.680;27.704;2023-12-22T11:16:46;99538.16;;;9.43;60.82
9796;BME280;4937;42.680;27.704;2023-12-22T11:19:14;99532.38;;;9.50;54.34
9796;BME280;4937;42.680;27.704;2023-12-22T11:21:40;99524.41;;;9.34;54.20
9796;BME280;4937;42.680;27.704;2023-12-22T11:24:07;99529.56;;;9.14;55.74
9796;BME280;4937;42.680;27.704;2023-12-22T11:26:33;99534.91;;;9.17;55.60
9796;BME280;4937;42.680;27.704;2023-12-22T11:28:59;99528.94;;;9.10;56.25
9796;BME280;4937;42.680;27.704;2023-12-22T11:31:26;99527.28;;;9.21;55.69
9796;BME280;4937;42.680;27.704;2023-12-22T11:33:54;99532.94;;;9.27;54.93
9796;BME280;4937;42.680;27.704;2023-12-22T11:36:22;99520.75;;;9.28;54.35
9796;BME280;4937;42.680;27.704;2023-12-22T11:38:48;99513.69;;;9.18;54.80
9796;BME280;4937;42.680;27.704;2023-12-22T11:41:34;99514.00;;;9.20;54.79
9796;BME280;4937;42.680;27.704;2023-12-22T11:44:01;99509.91;;;9.33;55.16
9796;BME280;4937;42.680;27.704;2023-12-22T11:46:28;99510.78;;;9.39;55.42
9796;BME280;4937;42.680;27.704;2023-12-22T11:48:55;99507.59;;;9.50;56.04
9796;BME280;4937;42.680;27.704;2023-12-22T11:51:20;99503.44;;;9.63;56.26
9796;BME280;4937;42.680;27.704;2023-12-22T11:53:46;99503.75;;;9.74;56.39
9796;BME280;4937;42.680;27.704;2023-12-22T11:56:12;99504.34;;;9.87;55.64
9796;BME280;4937;42.680;27.704;2023-12-22T11:58:43;99503.09;;;10.07;55.20
9796;BME280;4937;42.680;27.704;2023-12-22T12:01:17;99486.88;;;10.18;53.84
9796;BME280;4937;42.680;27.704;2023-12-22T12:03:54;99483.59;;;10.28;52.33
9796;BME280;4937;42.680;27.704;2023-12-22T12:08:59;99482.78;;;10.46;51.18
9796;BME280;4937;42.680;27.704;2023-12-22T12:14:22;99480.50;;;10.35;51.22
9796;BME280;4937;42.680;27.704;2023-12-22T12:16:49;99475.84;;;10.18;50.33
9796;BME280;4937;42.680;27.704;2023-12-22T12:19:14;99483.06;;;9.97;49.44
9796;BME280;4937;42.680;27.704;2023-12-22T12:21:40;99482.84;;;9.59;50.67
9796;BME280;4937;42.680;27.704;2023-12-22T12:24:06;99479.50;;;9.37;51.06
9796;BME280;4937;42.680;27.704;2023-12-22T12:26:34;99466.47;;;9.28;51.96
9796;BME280;4937;42.680;27.704;2023-12-22T12:29:01;99475.66;;;9.16;52.52
9796;BME280;4937;42.680;27.704;2023-12-22T12:31:36;99481.16;;;9.16;52.30
9796;BME280;4937;42.680;27.704;2023-12-22T12:34:07;99489.88;;;9.15;52.18
9796;BME280;4937;42.680;27.704;2023-12-22T12:36:33;99487.25;;;9.02;53.44
9796;BME280;4937;42.680;27.704;2023-12-22T12:39:06;99483.88;;;8.89;53.11
9796;BME280;4937;42.680;27.704;2023-12-22T12:41:41;99486.31;;;8.78;53.59
9796;BME280;4937;42.680;27.704;2023-12-22T12:44:08;99485.97;;;8.67;54.28
9796;BME280;4937;42.680;27.704;2023-12-22T12:46:39;99490.88;;;8.72;54.25
9796;BME280;4937;42.680;27.704;2023-12-22T12:49:09;99493.31;;;8.70;54.37
9796;BME280;4937;42.680;27.704;2023-12-22T12:51:41;99484.75;;;8.68;54.12
9796;BME280;4937;42.680;27.704;2023-12-22T12:54:08;99482.47;;;8.66;54.81
9796;BME280;4937;42.680;27.704;2023-12-22T12:56:41;99484.28;;;8.69;54.43
9796;BME280;4937;42.680;27.704;2023-12-22T12:59:13;99490.88;;;8.72;54.75
9796;BME280;4937;42.680;27.704;2023-12-22T13:01:39;99470.41;;;8.73;53.95
9796;BME280;4937;42.680;27.704;2023-12-22T13:04:05;99468.59;;;8.79;53.42
9796;BME280;4937;42.680;27.704;2023-12-22T13:06:30;99467.22;;;8.83;53.56
9796;BME280;4937;42.680;27.704;2023-12-22T13:08:56;99464.75;;;8.85;53.60
9796;BME280;4937;42.680;27.704;2023-12-22T13:11:27;99466.78;;;8.94;53.70
9796;BME280;4937;42.680;27.704;2023-12-22T13:13:53;99470.44;;;8.91;54.02
9796;BME280;4937;42.680;27.704;2023-12-22T13:16:20;99470.25;;;8.85;54.82
9796;BME280;4937;42.680;27.704;2023-12-22T13:18:46;99469.94;;;8.74;54.63
9796;BME280;4937;42.680;27.704;2023-12-22T13:21:12;99475.31;;;8.78;55.24
9796;BME280;4937;42.680;27.704;2023-12-22T13:23:38;99480.66;;;8.81;54.79
9796;BME280;4937;42.680;27.704;2023-12-22T13:26:04;99490.09;;;8.71;55.22